sensor_id;sensor_type;location;lat;lon;timestamp;temperature;humidity
18335;DHT22;9293;49.524;10.964;2022-12-13T00:01:48;-6.00;99.90
18335;DHT22;9293;49.524;10.964;2022-12-13T00:04:24;-6.00;99.90
18335;DHT22;9293;49.524;10.964;2022-12-13T00:06:53;-6.10;99.90
18335;DHT22;9293;49.524;10.964;2022-12-13T00:09:21;-6.10;99.90
18335;DHT22;9293;49.524;10.964;2022-12-13T00:11:49;-6.20;99.90
18335;DHT22;9293;49.524;10.964;2022-12-13T00:14:17;-6.30;99.90
18335;DHT22;9293;49.524;10.964;2022-12-13T00:16:47;-6.30;99.90
18335;DHT22;9293;49.524;10.964;2022-12-13T00:19:16;-6.20;99.90
18335;DHT22;9293;49.524;10.964;2022-12-13T00:21:45;-6.20;99.90
18335;DHT22;9293;49.524;10.964;2022-12-13T00:24:13;-6.20;99.90
18335;DHT22;9293;49.524;10.964;2022-12-13T00:26:41;-6.20;99.90
18335;DHT22;9293;49.524;10.964;2022-12-13T00:29:10;-6.30;99.90
18335;DHT22;9293;49.524;10.964;2022-12-13T00:31:39;-6.30;99.90
18335;DHT22;9293;49.524;10.964;2022-12-13T00:34:27;-6.30;99.90
18335;DHT22;9293;49.524;10.964;2022-12-13T00:36:55;-6.40;99.90
18335;DHT22;9293;49.524;10.964;2022-12-13T00:39:26;-6.40;99.90
18335;DHT22;9293;49.524;10.964;2022-12-13T00:41:54;-6.40;99.90
18335;DHT22;9293;49.524;10.964;2022-12-13T00:44:22;-6.40;99.90
18335;DHT22;9293;49.524;10.964;2022-12-13T00:46:50;-6.40;99.90
18335;DHT22;9293;49.524;10.964;2022-12-13T00:49:18;-6.40;99.90
18335;DHT22;9293;49.524;10.964;2022-12-13T00:51:47;-6.40;99.90
18335;DHT22;9293;49.524;10.964;2022-12-13T00:54:16;-6.40;99.90
18335;DHT22;9293;49.524;10.964;2022-12-13T00:56:44;-6.40;99.90
18335;DHT22;9293;49.524;10.964;2022-12-13T00:59:13;-6.50;99.90
18335;DHT22;9293;49.524;10.964;2022-12-13T01:01:43;-6.50;99.90
18335;DHT22;9293;49.524;10.964;2022-12-13T01:04:11;-6.50;99.90
18335;DHT22;9293;49.524;10.964;2022-12-13T01:06:42;-6.50;99.90
18335;DHT22;9293;49.524;10.964;2022-12-13T01:09:18;-6.50;99.90
18335;DHT22;9293;49.524;10.964;2022-12-13T01:11:48;-6.50;99.90
18335;DHT22;9293;49.524;10.964;2022-12-13T01:14:17;-6.50;99.90
18335;DHT22;9293;49.524;10.964;2022-12-13T01:16:45;-6.50;99.90
18335;DHT22;9293;49.524;10.964;2022-12-13T01:19:14;-6.50;99.90
18335;DHT22;9293;49.524;10.964;2022-12-13T01:21:42;-6.50;99.90
18335;DHT22;9293;49.524;10.964;2022-12-13T01:24:10;-6.50;99.90
18335;DHT22;9293;49.524;10.964;2022-12-13T01:26:38;-6.50;99.90
18335;DHT22;9293;49.524;10.964;2022-12-13T01:29:06;-6.60;99.90
18335;DHT22;9293;49.524;10.964;2022-12-13T01:31:36;-6.60;99.90
18335;DHT22;9293;49.524;10.964;2022-12-13T01:34:12;-6.60;99.90
18335;DHT22;9293;49.524;10.964;2022-12-13T01:36:42;-6.70;99.90
18335;DHT22;9293;49.524;10.964;2022-12-13T01:39:14;-6.80;99.90
18335;DHT22;9293;49.524;10.964;2022-12-13T01:41:44;-6.90;99.90
18335;DHT22;9293;49.524;10.964;2022-12-13T01:47:45;-6.80;99.90
18335;DHT22;9293;49.524;10.964;2022-12-13T01:50:21;-6.80;99.90
18335;DHT22;9293;49.524;10.964;2022-12-13T01:52:51;-6.80;99.90
18335;DHT22;9293;49.524;10.964;2022-12-13T01:55:28;-6.80;99.90
18335;DHT22;9293;49.524;10.964;2022-12-13T01:58:00;-6.80;99.90
18335;DHT22;9293;49.524;10.964;2022-12-13T02:00:29;-6.80;99.90
18335;DHT22;9293;49.524;10.964;2022-12-13T02:02:59;-6.80;99.90
18335;DHT22;9293;49.524;10.964;2022-12-13T02:08:10;-6.80;99.90
18335;DHT22;9293;49.524;10.964;2022-12-13T02:10:41;-6.80;99.90
18335;DHT22;9293;49.524;10.964;2022-12-13T02:13:10;-6.80;99.90
18335;DHT22;9293;49.524;10.964;2022-12-13T02:16:17;-6.80;99.90
18335;DHT22;9293;49.524;10.964;2022-12-13T02:22:01;-6.80;99.90
18335;DHT22;9293;49.524;10.964;2022-12-13T02:24:47;-6.90;99.90
18335;DHT22;9293;49.524;10.964;2022-12-13T02:27:44;-6.90;99.90
18335;DHT22;9293;49.524;10.964;2022-12-13T02:30:40;-6.90;99.90
18335;DHT22;9293;49.524;10.964;2022-12-13T02:36:29;-6.90;99.90
18335;DHT22;9293;49.524;10.964;2022-12-13T02:39:09;-7.10;99.90
18335;DHT22;9293;49.524;10.964;2022-12-13T02:41:48;-7.20;99.90
18335;DHT22;9293;49.524;10.964;2022-12-13T02:44:20;-7.20;99.90
18335;DHT22;9293;49.524;10.964;2022-12-13T02:46:57;-7.10;99.90
18335;DHT22;9293;49.524;10.964;2022-12-13T02:49:29;-7.10;99.90
18335;DHT22;9293;49.524;10.964;2022-12-13T02:52:01;-7.10;99.90
18335;DHT22;9293;49.524;10.964;2022-12-13T02:54:30;-7.10;99.90
18335;DHT22;9293;49.524;10.964;2022-12-13T02:56:59;-7.10;99.90
18335;DHT22;9293;49.524;10.964;2022-12-13T02:59:33;-7.10;99.90
18335;DHT22;9293;49.524;10.964;2022-12-13T03:11:11;-7.20;99.90
18335;DHT22;9293;49.524;10.964;2022-12-13T03:16:40;-7.20;99.90
18335;DHT22;9293;49.524;10.964;2022-12-13T03:19:11;-7.20;99.90
18335;DHT22;9293;49.524;10.964;2022-12-13T03:21:43;-7.20;99.90
18335;DHT22;9293;49.524;10.964;2022-12-13T03:24:18;-7.20;99.90
18335;DHT22;9293;49.524;10.964;2022-12-13T03:26:48;-7.30;99.90
18335;DHT22;9293;49.524;10.964;2022-12-13T03:29:17;-7.30;99.90
18335;DHT22;9293;49.524;10.964;2022-12-13T03:31:51;-7.30;99.90
18335;DHT22;9293;49.524;10.964;2022-12-13T03:34:19;-7.30;99.90
18335;DHT22;9293;49.524;10.964;2022-12-13T03:36:49;-7.30;99.90
18335;DHT22;9293;49.524;10.964;2022-12-13T03:39:17;-7.30;99.90
18335;DHT22;9293;49.524;10.964;2022-12-13T03:41:46;-7.30;99.90
18335;DHT22;9293;49.524;10.964;2022-12-13T03:44:14;-7.30;99.90
18335;DHT22;9293;49.524;10.964;2022-12-13T03:46:43;-7.30;99.90
18335;DHT22;9293;49.524;10.964;2022-12-13T03:49:11;-7.30;99.90
18335;DHT22;9293;49.524;10.964;2022-12-13T03:51:43;-7.50;99.90
18335;DHT22;9293;49.524;10.964;2022-12-13T03:54:11;-7.60;99.90
18335;DHT22;9293;49.524;10.964;2022-12-13T03:56:39;-7.50;99.90
18335;DHT22;9293;49.524;10.964;2022-12-13T03:59:07;-7.50;99.90
18335;DHT22;9293;49.524;10.964;2022-12-13T04:01:35;-7.50;99.90
18335;DHT22;9293;49.524;10.964;2022-12-13T04:04:03;-7.50;99.90
18335;DHT22;9293;49.524;10.964;2022-12-13T04:06:31;-7.50;99.90
18335;DHT22;9293;49.524;10.964;2022-12-13T04:08:59;-7.50;99.90
18335;DHT22;9293;49.524;10.964;2022-12-13T04:11:27;-7.50;99.90
18335;DHT22;9293;49.524;10.964;2022-12-13T04:14:17;-7.50;99.90
18335;DHT22;9293;49.524;10.964;2022-12-13T04:16:49;-7.50;99.90
18335;DHT22;9293;49.524;10.964;2022-12-13T04:19:18;-7.50;99.90
18335;DHT22;9293;49.524;10.964;2022-12-13T04:21:50;-7.60;99.90
18335;DHT22;9293;49.524;10.964;2022-12-13T04:24:19;-7.60;99.90
18335;DHT22;9293;49.524;10.964;2022-12-13T04:26:57;-7.60;99.90
18335;DHT22;9293;49.524;10.964;2022-12-13T04:29:27;-7.60;99.90
18335;DHT22;9293;49.524;10.964;2022-12-13T04:32:01;-7.60;99.90
18335;DHT22;9293;49.524;10.964;2022-12-13T04:34:29;-7.60;99.90
18335;DHT22;9293;49.524;10.964;2022-12-13T04:37:04;-7.60;99.90
18335;DHT22;9293;49.524;10.964;2022-12-13T04:39:32;-7.60;99.90
18335;DHT22;9293;49.524;10.964;2022-12-13T04:42:00;-7.70;99.90
18335;DHT22;9293;49.524;10.964;2022-12-13T04:44:29;-7.70;99.90
18335;DHT22;9293;49.524;10.964;2022-12-13T04:47:03;-7.70;99.90
18335;DHT22;9293;49.524;10.964;2022-12-13T04:49:31;-7.70;99.90
18335;DHT22;9293;49.524;10.964;2022-12-13T04:52:01;-7.70;99.90
18335;DHT22;9293;49.524;10.964;2022-12-13T04:54:30;-7.70;99.90
18335;DHT22;9293;49.524;10.964;2022-12-13T04:57:06;-7.80;99.90
18335;DHT22;9293;49.524;10.964;2022-12-13T04:59:39;-7.90;99.90
18335;DHT22;9293;49.524;10.964;2022-12-13T05:02:09;-7.80;99.90
18335;DHT22;9293;49.524;10.964;2022-12-13T05:04:37;-7.80;99.90
18335;DHT22;9293;49.524;10.964;2022-12-13T05:07:05;-7.80;99.90
18335;DHT22;9293;49.524;10.964;2022-12-13T05:09:33;-7.80;99.90
18335;DHT22;9293;49.524;10.964;2022-12-13T05:12:01;-7.80;99.90
18335;DHT22;9293;49.524;10.964;2022-12-13T05:14:30;-7.80;99.90
18335;DHT22;9293;49.524;10.964;2022-12-13T05:16:59;-7.80;99.90
18335;DHT22;9293;49.524;10.964;2022-12-13T05:19:27;-7.80;99.90
18335;DHT22;9293;49.524;10.964;2022-12-13T05:21:58;-7.80;99.90
18335;DHT22;9293;49.524;10.964;2022-12-13T05:24:29;-7.80;99.90
18335;DHT22;9293;49.524;10.964;2022-12-13T05:26:58;-7.90;99.90
18335;DHT22;9293;49.524;10.964;2022-12-13T05:29:26;-7.90;99.90
18335;DHT22;9293;49.524;10.964;2022-12-13T05:31:55;-7.90;99.90
18335;DHT22;9293;49.524;10.964;2022-12-13T05:34:23;-7.90;99.90
18335;DHT22;9293;49.524;10.964;2022-12-13T05:36:51;-7.90;99.90
18335;DHT22;9293;49.524;10.964;2022-12-13T05:39:19;-8.00;99.90
18335;DHT22;9293;49.524;10.964;2022-12-13T05:41:57;-8.10;99.90
18335;DHT22;9293;49.524;10.964;2022-12-13T05:44:31;-8.10;99.90
18335;DHT22;9293;49.524;10.964;2022-12-13T05:46:59;-8.10;99.90
18335;DHT22;9293;49.524;10.964;2022-12-13T05:49:29;-8.00;99.90
18335;DHT22;9293;49.524;10.964;2022-12-13T05:51:58;-8.10;99.90
18335;DHT22;9293;49.524;10.964;2022-12-13T05:54:26;-8.10;99.90
18335;DHT22;9293;49.524;10.964;2022-12-13T05:56:54;-8.00;99.90
18335;DHT22;9293;49.524;10.964;2022-12-13T05:59:22;-8.00;99.90
18335;DHT22;9293;49.524;10.964;2022-12-13T06:01:50;-8.00;99.90
18335;DHT22;9293;49.524;10.964;2022-12-13T06:04:18;-8.00;99.90
18335;DHT22;9293;49.524;10.964;2022-12-13T06:06:49;-8.00;99.90
18335;DHT22;9293;49.524;10.964;2022-12-13T06:09:18;-8.00;99.90
18335;DHT22;9293;49.524;10.964;2022-12-13T06:11:49;-8.00;99.90
18335;DHT22;9293;49.524;10.964;2022-12-13T06:14:27;-8.10;99.90
18335;DHT22;9293;49.524;10.964;2022-12-13T06:16:55;-8.20;99.90
18335;DHT22;9293;49.524;10.964;2022-12-13T06:19:24;-8.30;99.90
18335;DHT22;9293;49.524;10.964;2022-12-13T06:21:53;-8.30;99.90
18335;DHT22;9293;49.524;10.964;2022-12-13T06:24:22;-8.30;99.90
18335;DHT22;9293;49.524;10.964;2022-12-13T06:26:51;-8.30;99.90
18335;DHT22;9293;49.524;10.964;2022-12-13T06:29:21;-8.20;99.90
18335;DHT22;9293;49.524;10.964;2022-12-13T06:31:53;-8.20;99.90
18335;DHT22;9293;49.524;10.964;2022-12-13T06:34:30;-8.10;99.90
18335;DHT22;9293;49.524;10.964;2022-12-13T06:37:04;-8.10;99.90
18335;DHT22;9293;49.524;10.964;2022-12-13T06:39:33;-8.10;99.90
18335;DHT22;9293;49.524;10.964;2022-12-13T06:42:03;-8.10;99.90
18335;DHT22;9293;49.524;10.964;2022-12-13T06:44:34;-8.10;99.90
18335;DHT22;9293;49.524;10.964;2022-12-13T06:47:03;-8.10;99.90
18335;DHT22;9293;49.524;10.964;2022-12-13T06:49:38;-8.10;99.90
18335;DHT22;9293;49.524;10.964;2022-12-13T06:52:11;-8.10;99.90
18335;DHT22;9293;49.524;10.964;2022-12-13T06:54:40;-8.20;99.90
18335;DHT22;9293;49.524;10.964;2022-12-13T06:57:21;-8.20;99.90
18335;DHT22;9293;49.524;10.964;2022-12-13T06:59:49;-8.20;99.90
18335;DHT22;9293;49.524;10.964;2022-12-13T07:02:17;-8.10;99.90
18335;DHT22;9293;49.524;10.964;2022-12-13T07:04:52;-8.10;99.90
18335;DHT22;9293;49.524;10.964;2022-12-13T07:07:20;-8.10;99.90
18335;DHT22;9293;49.524;10.964;2022-12-13T07:09:48;-8.00;99.90
18335;DHT22;9293;49.524;10.964;2022-12-13T07:12:16;-8.10;99.90
18335;DHT22;9293;49.524;10.964;2022-12-13T07:14:46;-8.10;99.90
18335;DHT22;9293;49.524;10.964;2022-12-13T07:17:15;-8.10;99.90
18335;DHT22;9293;49.524;10.964;2022-12-13T07:20:03;-8.10;99.90
18335;DHT22;9293;49.524;10.964;2022-12-13T07:22:36;-8.00;99.90
18335;DHT22;9293;49.524;10.964;2022-12-13T07:25:13;-8.00;99.90
18335;DHT22;9293;49.524;10.964;2022-12-13T07:28:02;-8.10;99.90
18335;DHT22;9293;49.524;10.964;2022-12-13T07:30:36;-8.10;99.90
18335;DHT22;9293;49.524;10.964;2022-12-13T07:33:08;-8.00;99.90
18335;DHT22;9293;49.524;10.964;2022-12-13T07:35:36;-8.00;99.90
18335;DHT22;9293;49.524;10.964;2022-12-13T07:38:08;-8.00;99.90
18335;DHT22;9293;49.524;10.964;2022-12-13T07:40:37;-8.00;99.90
18335;DHT22;9293;49.524;10.964;2022-12-13T07:43:06;-8.00;99.90
18335;DHT22;9293;49.524;10.964;2022-12-13T07:45:35;-7.90;99.90
18335;DHT22;9293;49.524;10.964;2022-12-13T07:48:04;-7.80;99.90
18335;DHT22;9293;49.524;10.964;2022-12-13T07:50:32;-7.70;99.90
18335;DHT22;9293;49.524;10.964;2022-12-13T07:53:05;-7.60;99.90
18335;DHT22;9293;49.524;10.964;2022-12-13T07:55:34;-7.60;99.90
18335;DHT22;9293;49.524;10.964;2022-12-13T07:58:07;-7.50;99.90
18335;DHT22;9293;49.524;10.964;2022-12-13T08:00:40;-7.40;99.90
18335;DHT22;9293;49.524;10.964;2022-12-13T08:03:12;-7.40;99.90
18335;DHT22;9293;49.524;10.964;2022-12-13T08:08:27;-7.30;99.90
18335;DHT22;9293;49.524;10.964;2022-12-13T08:11:01;-7.20;99.90
18335;DHT22;9293;49.524;10.964;2022-12-13T08:13:29;-7.20;99.90
18335;DHT22;9293;49.524;10.964;2022-12-13T08:16:03;-7.20;99.90
18335;DHT22;9293;49.524;10.964;2022-12-13T08:18:51;-7.10;99.90
18335;DHT22;9293;49.524;10.964;2022-12-13T08:21:35;-7.00;99.90
18335;DHT22;9293;49.524;10.964;2022-12-13T08:24:22;-6.90;99.90
18335;DHT22;9293;49.524;10.964;2022-12-13T08:26:53;-7.00;99.90
18335;DHT22;9293;49.524;10.964;2022-12-13T08:29:21;-7.00;99.90
18335;DHT22;9293;49.524;10.964;2022-12-13T08:32:03;-7.00;99.90
18335;DHT22;9293;49.524;10.964;2022-12-13T08:34:31;-6.90;99.90
18335;DHT22;9293;49.524;10.964;2022-12-13T08:36:59;-6.80;99.90
18335;DHT22;9293;49.524;10.964;2022-12-13T08:39:31;-6.70;99.90
18335;DHT22;9293;49.524;10.964;2022-12-13T08:42:06;-6.50;99.90
18335;DHT22;9293;49.524;10.964;2022-12-13T08:44:44;-6.40;99.90
18335;DHT22;9293;49.524;10.964;2022-12-13T08:47:12;-6.30;99.90
18335;DHT22;9293;49.524;10.964;2022-12-13T08:49:54;-6.20;99.90
18335;DHT22;9293;49.524;10.964;2022-12-13T08:52:30;-6.10;99.90
18335;DHT22;9293;49.524;10.964;2022-12-13T08:55:07;-6.10;99.90
18335;DHT22;9293;49.524;10.964;2022-12-13T08:57:36;-6.10;99.90
18335;DHT22;9293;49.524;10.964;2022-12-13T09:00:05;-6.00;99.90
18335;DHT22;9293;49.524;10.964;2022-12-13T09:02:34;-6.00;99.90
18335;DHT22;9293;49.524;10.964;2022-12-13T09:05:05;-5.90;99.90
18335;DHT22;9293;49.524;10.964;2022-12-13T09:07:35;-5.90;99.90
18335;DHT22;9293;49.524;10.964;2022-12-13T09:10:03;-5.80;99.90
18335;DHT22;9293;49.524;10.964;2022-12-13T09:12:54;-5.80;99.90
18335;DHT22;9293;49.524;10.964;2022-12-13T09:15:29;-5.80;99.90
18335;DHT22;9293;49.524;10.964;2022-12-13T09:18:02;-5.80;99.90
18335;DHT22;9293;49.524;10.964;2022-12-13T09:20:34;-5.70;99.90
18335;DHT22;9293;49.524;10.964;2022-12-13T09:23:08;-5.60;99.90
18335;DHT22;9293;49.524;10.964;2022-12-13T09:25:54;-5.60;99.90
18335;DHT22;9293;49.524;10.964;2022-12-13T09:28:31;-5.50;99.90
18335;DHT22;9293;49.524;10.964;2022-12-13T09:31:00;-5.50;99.90
18335;DHT22;9293;49.524;10.964;2022-12-13T09:33:28;-5.50;99.90
18335;DHT22;9293;49.524;10.964;2022-12-13T09:35:57;-5.40;99.90
18335;DHT22;9293;49.524;10.964;2022-12-13T09:38:27;-5.40;99.90
18335;DHT22;9293;49.524;10.964;2022-12-13T09:40:57;-5.10;99.90
18335;DHT22;9293;49.524;10.964;2022-12-13T09:43:29;-5.00;99.90
18335;DHT22;9293;49.524;10.964;2022-12-13T09:46:42;-4.90;99.90
18335;DHT22;9293;49.524;10.964;2022-12-13T09:51:54;-4.80;99.90
18335;DHT22;9293;49.524;10.964;2022-12-13T09:54:37;-4.70;99.90
18335;DHT22;9293;49.524;10.964;2022-12-13T09:57:24;-4.70;99.90
18335;DHT22;9293;49.524;10.964;2022-12-13T10:00:06;-4.60;99.90
18335;DHT22;9293;49.524;10.964;2022-12-13T10:02:45;-4.50;99.90
18335;DHT22;9293;49.524;10.964;2022-12-13T10:05:18;-4.50;99.90
18335;DHT22;9293;49.524;10.964;2022-12-13T10:07:51;-4.50;99.90
18335;DHT22;9293;49.524;10.964;2022-12-13T10:10:21;-4.50;99.90
18335;DHT22;9293;49.524;10.964;2022-12-13T10:13:02;-4.40;99.90
18335;DHT22;9293;49.524;10.964;2022-12-13T10:15:36;-4.40;99.90
18335;DHT22;9293;49.524;10.964;2022-12-13T10:18:09;-4.30;99.90
18335;DHT22;9293;49.524;10.964;2022-12-13T10:20:40;-4.40;99.90
18335;DHT22;9293;49.524;10.964;2022-12-13T10:23:09;-4.40;99.90
18335;DHT22;9293;49.524;10.964;2022-12-13T10:25:58;-4.40;99.90
18335;DHT22;9293;49.524;10.964;2022-12-13T10:28:31;-4.40;99.90
18335;DHT22;9293;49.524;10.964;2022-12-13T10:31:00;-4.20;99.90
18335;DHT22;9293;49.524;10.964;2022-12-13T10:33:36;-4.10;99.90
18335;DHT22;9293;49.524;10.964;2022-12-13T10:36:10;-4.10;99.90
18335;DHT22;9293;49.524;10.964;2022-12-13T10:38:44;-4.10;99.90
18335;DHT22;9293;49.524;10.964;2022-12-13T10:41:33;-4.10;99.90
18335;DHT22;9293;49.524;10.964;2022-12-13T10:46:41;-4.00;99.90
18335;DHT22;9293;49.524;10.964;2022-12-13T10:49:23;-3.90;99.90
18335;DHT22;9293;49.524;10.964;2022-12-13T10:52:00;-3.80;99.90
18335;DHT22;9293;49.524;10.964;2022-12-13T10:54:33;-3.80;99.90
18335;DHT22;9293;49.524;10.964;2022-12-13T10:57:17;-3.70;99.90
18335;DHT22;9293;49.524;10.964;2022-12-13T10:59:49;-3.60;99.90
18335;DHT22;9293;49.524;10.964;2022-12-13T11:02:36;-3.50;99.90
18335;DHT22;9293;49.524;10.964;2022-12-13T11:05:35;-3.50;99.90
18335;DHT22;9293;49.524;10.964;2022-12-13T11:08:21;-3.40;99.90
18335;DHT22;9293;49.524;10.964;2022-12-13T11:11:01;-3.40;99.90
18335;DHT22;9293;49.524;10.964;2022-12-13T11:13:52;-3.40;99.90
18335;DHT22;9293;49.524;10.964;2022-12-13T11:19:01;-3.30;99.90
18335;DHT22;9293;49.524;10.964;2022-12-13T11:21:36;-3.30;99.90
18335;DHT22;9293;49.524;10.964;2022-12-13T11:24:07;-3.20;99.90
18335;DHT22;9293;49.524;10.964;2022-12-13T11:26:59;-3.10;99.90
18335;DHT22;9293;49.524;10.964;2022-12-13T11:29:50;-3.10;99.90
18335;DHT22;9293;49.524;10.964;2022-12-13T11:35:29;-3.00;99.90
18335;DHT22;9293;49.524;10.964;2022-12-13T11:40:41;-2.80;99.90
18335;DHT22;9293;49.524;10.964;2022-12-13T11:43:30;-2.90;99.90
18335;DHT22;9293;49.524;10.964;2022-12-13T11:46:15;-2.90;99.90
18335;DHT22;9293;49.524;10.964;2022-12-13T11:49:01;-2.80;99.90
18335;DHT22;9293;49.524;10.964;2022-12-13T11:51:37;-2.70;99.90
18335;DHT22;9293;49.524;10.964;2022-12-13T11:54:16;-2.70;99.90
18335;DHT22;9293;49.524;10.964;2022-12-13T11:56:51;-2.70;99.90
18335;DHT22;9293;49.524;10.964;2022-12-13T11:59:38;-2.70;99.90
18335;DHT22;9293;49.524;10.964;2022-12-13T12:02:34;-2.70;99.90
18335;DHT22;9293;49.524;10.964;2022-12-13T12:05:15;-2.60;99.90
18335;DHT22;9293;49.524;10.964;2022-12-13T12:07:49;-2.60;99.90
18335;DHT22;9293;49.524;10.964;2022-12-13T12:10:48;-2.50;99.90
18335;DHT22;9293;49.524;10.964;2022-12-13T12:13:50;-2.50;99.90
18335;DHT22;9293;49.524;10.964;2022-12-13T12:19:12;-2.40;99.90
18335;DHT22;9293;49.524;10.964;2022-12-13T12:24:59;-2.50;99.90
18335;DHT22;9293;49.524;10.964;2022-12-13T12:33:31;-2.40;99.90
18335;DHT22;9293;49.524;10.964;2022-12-13T12:58:44;-2.10;99.90
18335;DHT22;9293;49.524;10.964;2022-12-13T13:04:11;-2.10;99.90
18335;DHT22;9293;49.524;10.964;2022-12-13T13:06:54;-2.10;99.90
18335;DHT22;9293;49.524;10.964;2022-12-13T13:09:32;-2.10;99.90
18335;DHT22;9293;49.524;10.964;2022-12-13T13:12:08;-2.10;99.90
18335;DHT22;9293;49.524;10.964;2022-12-13T13:14:56;-2.00;99.90
18335;DHT22;9293;49.524;10.964;2022-12-13T13:22:40;-1.50;99.90
18335;DHT22;9293;49.524;10.964;2022-12-13T13:25:28;-1.40;99.90
18335;DHT22;9293;49.524;10.964;2022-12-13T13:28:14;-1.40;99.90
18335;DHT22;9293;49.524;10.964;2022-12-13T13:31:14;-1.40;99.90
18335;DHT22;9293;49.524;10.964;2022-12-13T13:33:45;-1.40;99.90
18335;DHT22;9293;49.524;10.964;2022-12-13T13:39:51;-1.40;99.90
18335;DHT22;9293;49.524;10.964;2022-12-13T13:42:22;-1.40;99.90
18335;DHT22;9293;49.524;10.964;2022-12-13T14:18:45;-1.60;99.90
18335;DHT22;9293;49.524;10.964;2022-12-13T14:29:00;-1.60;99.90
18335;DHT22;9293;49.524;10.964;2022-12-13T14:31:38;-1.60;99.90
18335;DHT22;9293;49.524;10.964;2022-12-13T14:34:24;-1.70;99.90
18335;DHT22;9293;49.524;10.964;2022-12-13T14:37:01;-1.70;99.90
18335;DHT22;9293;49.524;10.964;2022-12-13T14:39:31;-1.70;99.90
18335;DHT22;9293;49.524;10.964;2022-12-13T14:42:20;-1.70;99.90
18335;DHT22;9293;49.524;10.964;2022-12-13T14:44:48;-1.70;99.90
18335;DHT22;9293;49.524;10.964;2022-12-13T14:47:16;-1.80;99.90
18335;DHT22;9293;49.524;10.964;2022-12-13T14:49:49;-1.90;99.90
18335;DHT22;9293;49.524;10.964;2022-12-13T14:52:24;-1.90;99.90
18335;DHT22;9293;49.524;10.964;2022-12-13T14:55:00;-2.00;99.90
18335;DHT22;9293;49.524;10.964;2022-12-13T14:57:34;-2.00;99.90
18335;DHT22;9293;49.524;10.964;2022-12-13T15:00:22;-2.00;99.90
18335;DHT22;9293;49.524;10.964;2022-12-13T15:02:53;-2.10;99.90
18335;DHT22;9293;49.524;10.964;2022-12-13T15:05:44;-2.20;99.90
18335;DHT22;9293;49.524;10.964;2022-12-13T15:08:18;-2.20;99.90
18335;DHT22;9293;49.524;10.964;2022-12-13T15:10:57;-2.30;99.90
18335;DHT22;9293;49.524;10.964;2022-12-13T15:13:43;-2.40;99.90
18335;DHT22;9293;49.524;10.964;2022-12-13T15:16:25;-2.40;99.90
18335;DHT22;9293;49.524;10.964;2022-12-13T15:19:17;-2.50;99.90
18335;DHT22;9293;49.524;10.964;2022-12-13T15:22:13;-2.60;99.90
18335;DHT22;9293;49.524;10.964;2022-12-13T15:24:52;-2.70;99.90
18335;DHT22;9293;49.524;10.964;2022-12-13T15:27:26;-2.70;99.90
18335;DHT22;9293;49.524;10.964;2022-12-13T15:29:54;-2.80;99.90
18335;DHT22;9293;49.524;10.964;2022-12-13T15:32:22;-2.80;99.90
18335;DHT22;9293;49.524;10.964;2022-12-13T15:34:51;-2.90;99.90
18335;DHT22;9293;49.524;10.964;2022-12-13T15:37:31;-3.00;99.90
18335;DHT22;9293;49.524;10.964;2022-12-13T15:40:06;-3.10;99.90
18335;DHT22;9293;49.524;10.964;2022-12-13T15:42:37;-3.10;99.90
18335;DHT22;9293;49.524;10.964;2022-12-13T15:45:33;-3.20;99.90
18335;DHT22;9293;49.524;10.964;2022-12-13T15:48:03;-3.20;99.90
18335;DHT22;9293;49.524;10.964;2022-12-13T15:50:39;-3.30;99.90
18335;DHT22;9293;49.524;10.964;2022-12-13T15:53:27;-3.30;99.90
18335;DHT22;9293;49.524;10.964;2022-12-13T15:55:56;-3.40;99.90
18335;DHT22;9293;49.524;10.964;2022-12-13T15:58:33;-3.40;99.90
18335;DHT22;9293;49.524;10.964;2022-12-13T16:01:05;-3.50;99.90
18335;DHT22;9293;49.524;10.964;2022-12-13T16:03:42;-3.60;99.90
18335;DHT22;9293;49.524;10.964;2022-12-13T16:06:17;-3.70;99.90
18335;DHT22;9293;49.524;10.964;2022-12-13T16:08:50;-3.70;99.90
18335;DHT22;9293;49.524;10.964;2022-12-13T16:11:40;-3.70;99.90
18335;DHT22;9293;49.524;10.964;2022-12-13T16:17:27;-3.80;99.90
18335;DHT22;9293;49.524;10.964;2022-12-13T16:19:56;-3.80;99.90
18335;DHT22;9293;49.524;10.964;2022-12-13T16:22:34;-3.90;99.90
18335;DHT22;9293;49.524;10.964;2022-12-13T16:25:03;-3.90;99.90
18335;DHT22;9293;49.524;10.964;2022-12-13T16:27:31;-4.00;99.90
18335;DHT22;9293;49.524;10.964;2022-12-13T16:29:59;-4.10;99.90
18335;DHT22;9293;49.524;10.964;2022-12-13T16:32:27;-4.10;99.90
18335;DHT22;9293;49.524;10.964;2022-12-13T16:35:02;-4.10;99.90
18335;DHT22;9293;49.524;10.964;2022-12-13T16:37:33;-4.20;99.90
18335;DHT22;9293;49.524;10.964;2022-12-13T16:40:25;-4.30;99.90
18335;DHT22;9293;49.524;10.964;2022-12-13T16:42:57;-4.30;99.90
18335;DHT22;9293;49.524;10.964;2022-12-13T16:48:19;-4.30;99.90
18335;DHT22;9293;49.524;10.964;2022-12-13T16:50:49;-4.30;99.90
18335;DHT22;9293;49.524;10.964;2022-12-13T16:53:23;-4.30;99.90
18335;DHT22;9293;49.524;10.964;2022-12-13T16:55:52;-4.20;99.90
18335;DHT22;9293;49.524;10.964;2022-12-13T16:58:25;-4.20;99.90
18335;DHT22;9293;49.524;10.964;2022-12-13T17:00:52;-4.20;99.90
18335;DHT22;9293;49.524;10.964;2022-12-13T17:03:28;-4.10;99.90
18335;DHT22;9293;49.524;10.964;2022-12-13T17:05:57;-4.10;99.90
18335;DHT22;9293;49.524;10.964;2022-12-13T17:08:25;-4.10;99.90
18335;DHT22;9293;49.524;10.964;2022-12-13T17:10:56;-4.00;99.90
18335;DHT22;9293;49.524;10.964;2022-12-13T17:13:25;-4.00;99.90
18335;DHT22;9293;49.524;10.964;2022-12-13T17:15:54;-3.90;99.90
18335;DHT22;9293;49.524;10.964;2022-12-13T17:18:25;-3.90;99.90
18335;DHT22;9293;49.524;10.964;2022-12-13T17:20:54;-4.00;99.90
18335;DHT22;9293;49.524;10.964;2022-12-13T17:23:25;-4.00;99.90
18335;DHT22;9293;49.524;10.964;2022-12-13T17:25:54;-4.00;99.90
18335;DHT22;9293;49.524;10.964;2022-12-13T17:28:24;-4.00;99.90
18335;DHT22;9293;49.524;10.964;2022-12-13T17:30:52;-4.00;99.90
18335;DHT22;9293;49.524;10.964;2022-12-13T17:33:21;-4.00;99.90
18335;DHT22;9293;49.524;10.964;2022-12-13T17:35:49;-4.00;99.90
18335;DHT22;9293;49.524;10.964;2022-12-13T17:38:17;-4.10;99.90
18335;DHT22;9293;49.524;10.964;2022-12-13T17:40:45;-4.20;99.90
18335;DHT22;9293;49.524;10.964;2022-12-13T17:43:21;-4.20;99.90
18335;DHT22;9293;49.524;10.964;2022-12-13T17:46:01;-4.20;99.90
18335;DHT22;9293;49.524;10.964;2022-12-13T17:48:30;-4.20;99.90
18335;DHT22;9293;49.524;10.964;2022-12-13T17:51:07;-4.20;99.90
18335;DHT22;9293;49.524;10.964;2022-12-13T17:53:38;-4.20;99.90
18335;DHT22;9293;49.524;10.964;2022-12-13T17:56:09;-4.30;99.90
18335;DHT22;9293;49.524;10.964;2022-12-13T17:58:45;-4.30;99.90
18335;DHT22;9293;49.524;10.964;2022-12-13T18:01:17;-4.30;99.90
18335;DHT22;9293;49.524;10.964;2022-12-13T18:03:46;-4.40;99.90
18335;DHT22;9293;49.524;10.964;2022-12-13T18:06:15;-4.40;99.90
18335;DHT22;9293;49.524;10.964;2022-12-13T18:08:44;-4.50;99.90
18335;DHT22;9293;49.524;10.964;2022-12-13T18:11:14;-4.50;99.90
18335;DHT22;9293;49.524;10.964;2022-12-13T18:14:04;-4.50;99.90
18335;DHT22;9293;49.524;10.964;2022-12-13T18:16:33;-4.50;99.90
18335;DHT22;9293;49.524;10.964;2022-12-13T18:19:10;-4.60;99.90
18335;DHT22;9293;49.524;10.964;2022-12-13T18:21:39;-4.70;99.90
18335;DHT22;9293;49.524;10.964;2022-12-13T18:24:08;-4.80;99.90
18335;DHT22;9293;49.524;10.964;2022-12-13T18:26:36;-4.70;99.90